Time;durP1;ratioP1;P1;durP2;ratioP2;P2;SDS_P1;SDS_P2;PMS_P1;PMS_P2;Temp;Humidity;BMP_temperature;BMP_pressure;BME280_temperature;BME280_humidity;BME280_pressure;Samples;Min_cycle;Max_cycle;Signal;HPM_P1;HPM_P2
2023/07/06 00:01:48;;;;;;;0.65;0.38;;;25.50;76.30;;;;;;5017720;28;20038;-78
2023/07/06 00:04:14;;;;;;;0.60;0.40;;;25.40;76.20;;;;;;5018968;28;20038;-79
2023/07/06 00:06:40;;;;;;;0.73;0.50;;;25.50;76.10;;;;;;5024634;28;20034;-79
2023/07/06 00:09:06;;;;;;;1.65;0.70;;;25.50;76.20;;;;;;5028007;28;20413;-79
2023/07/06 00:11:39;;;;;;;1.17;0.70;;;25.50;76.30;;;;;;5016597;28;20053;-79
2023/07/06 00:14:07;;;;;;;1.60;0.60;;;25.30;76.50;;;;;;5020465;28;20030;-79
2023/07/06 00:16:33;;;;;;;0.95;0.60;;;25.20;77.00;;;;;;5022713;28;20030;-79
2023/07/06 00:18:59;;;;;;;1.25;0.43;;;25.20;77.60;;;;;;5016519;28;20022;-79
2023/07/06 00:21:29;;;;;;;0.90;0.50;;;25.10;77.90;;;;;;5016433;28;20470;-79
2023/07/06 00:23:57;;;;;;;1.23;0.70;;;25.10;78.00;;;;;;5015799;28;20033;-78
2023/07/06 00:26:23;;;;;;;2.25;0.50;;;25.10;78.60;;;;;;5014505;28;20022;-79
2023/07/06 00:28:49;;;;;;;0.70;0.47;;;25.10;78.40;;;;;;5030077;28;20048;-78
2023/07/06 00:31:31;;;;;;;2.15;0.70;;;25.10;79.10;;;;;;4999277;28;20449;-78
2023/07/06 00:34:03;;;;;;;2.55;0.70;;;25.10;79.40;;;;;;5015736;28;20030;-78
2023/07/06 00:36:30;;;;;;;1.05;0.68;;;25.00;79.50;;;;;;5021921;28;20130;-78
2023/07/06 00:38:55;;;;;;;1.45;0.65;;;24.90;79.60;;;;;;5015983;28;20026;-77
2023/07/06 00:41:21;;;;;;;0.82;0.40;;;24.80;80.00;;;;;;5016398;28;20037;-78
2023/07/06 00:43:55;;;;;;;1.77;0.60;;;24.80;80.50;;;;;;5015919;28;20041;-78
2023/07/06 00:46:24;;;;;;;0.55;0.52;;;24.70;80.10;;;;;;5014454;28;20038;-78
2023/07/06 00:48:51;;;;;;;2.50;0.60;;;24.80;80.10;;;;;;5016278;28;20030;-78
2023/07/06 00:51:22;;;;;;;1.02;0.57;;;24.70;80.60;;;;;;5015962;28;20043;-79
2023/07/06 00:54:04;;;;;;;1.50;0.75;;;24.70;80.50;;;;;;5015026;28;20033;-79
2023/07/06 00:56:34;;;;;;;1.33;0.60;;;24.70;80.90;;;;;;5003356;28;20033;-79
2023/07/06 00:59:03;;;;;;;0.93;0.50;;;24.60;80.70;;;;;;5013931;28;20030;-79
2023/07/06 01:01:32;;;;;;;1.88;0.80;;;24.70;80.70;;;;;;5024851;28;20358;-79
2023/07/06 01:03:59;;;;;;;3.03;0.60;;;24.70;80.90;;;;;;5019135;28;20032;-79
2023/07/06 01:06:47;;;;;;;1.30;0.68;;;24.80;80.80;;;;;;5016242;28;20041;-79
2023/07/06 01:09:15;;;;;;;1.13;0.70;;;24.90;80.50;;;;;;5021427;28;20029;-79
2023/07/06 01:11:43;;;;;;;1.00;0.60;;;24.90;80.30;;;;;;5022894;28;20474;-79
2023/07/06 01:14:14;;;;;;;0.80;0.60;;;24.90;81.00;;;;;;5014075;28;20053;-79
2023/07/06 01:16:47;;;;;;;2.70;0.50;;;24.90;80.50;;;;;;4999814;28;20474;-79
2023/07/06 01:19:50;;;;;;;0.82;0.68;;;24.80;80.20;;;;;;5009042;28;20041;-79
2023/07/06 01:22:54;;;;;;;1.15;0.77;;;24.80;80.80;;;;;;5017611;28;20466;-79
2023/07/06 01:25:55;;;;;;;2.33;0.80;;;24.80;80.50;;;;;;4935096;29;20040;-79
2023/07/06 01:28:41;;;;;;;1.63;0.80;;;24.70;80.70;;;;;;5012901;28;20057;-79
2023/07/06 01:31:26;;;;;;;1.27;0.70;;;24.60;80.80;;;;;;5003134;28;20041;-78
2023/07/06 01:34:12;;;;;;;0.85;0.57;;;24.60;81.10;;;;;;5017387;28;20020;-79
2023/07/06 01:36:58;;;;;;;2.08;0.80;;;24.50;81.80;;;;;;4984218;28;20037;-79
2023/07/06 01:39:28;;;;;;;2.10;0.60;;;24.40;82.10;;;;;;5025093;28;20026;-79
2023/07/06 01:42:19;;;;;;;2.38;0.80;;;24.30;81.80;;;;;;5015248;28;20100;-79
2023/07/06 01:44:49;;;;;;;0.60;0.50;;;24.30;82.20;;;;;;5026476;28;20026;-79
2023/07/06 01:47:18;;;;;;;0.93;0.70;;;24.20;82.00;;;;;;5016635;28;20030;-79
2023/07/06 01:49:45;;;;;;;2.08;0.57;;;24.20;82.30;;;;;;5022345;28;20045;-79
2023/07/06 01:52:36;;;;;;;0.60;0.50;;;24.20;82.70;;;;;;5014494;28;20057;-79
2023/07/06 01:55:14;;;;;;;1.98;0.75;;;24.00;82.80;;;;;;4994820;28;20125;-79
2023/07/06 01:58:04;;;;;;;2.85;1.00;;;23.90;82.90;;;;;;5002149;28;20025;-79
2023/07/06 02:00:31;;;;;;;1.15;0.60;;;23.80;82.80;;;;;;5015585;28;20025;-79
2023/07/06 02:02:59;;;;;;;1.17;0.90;;;23.80;82.90;;;;;;5018402;28;20038;-79
2023/07/06 02:05:26;;;;;;;1.65;0.70;;;23.80;83.10;;;;;;5024402;28;20034;-79
2023/07/06 02:07:52;;;;;;;1.55;0.63;;;23.80;83.00;;;;;;5014569;28;20033;-78
2023/07/06 02:10:22;;;;;;;0.98;0.68;;;23.80;82.90;;;;;;4998958;28;20037;-78
2023/07/06 02:12:48;;;;;;;0.83;0.50;;;23.80;82.70;;;;;;5001363;28;20050;-78
2023/07/06 02:15:19;;;;;;;1.15;0.50;;;23.80;82.90;;;;;;5026025;28;20034;-78
2023/07/06 02:17:49;;;;;;;1.30;0.63;;;23.90;83.20;;;;;;5014090;28;20038;-78
2023/07/06 02:20:16;;;;;;;1.58;0.60;;;24.00;82.70;;;;;;5014203;28;20040;-78
2023/07/06 02:22:43;;;;;;;1.10;0.73;;;24.00;82.40;;;;;;5021953;28;20034;-78
2023/07/06 02:25:08;;;;;;;7.28;1.17;;;24.00;82.00;;;;;;5005010;28;20033;-78
2023/07/06 02:27:34;;;;;;;1.95;0.70;;;24.00;82.10;;;;;;5022571;28;20442;-77
2023/07/06 02:30:00;;;;;;;0.95;0.73;;;24.00;82.20;;;;;;5014053;28;20026;-77
2023/07/06 02:32:27;;;;;;;0.70;0.55;;;23.90;82.30;;;;;;5013596;28;20058;-78
2023/07/06 02:34:53;;;;;;;1.23;0.75;;;23.90;82.50;;;;;;5025834;28;20034;-77
2023/07/06 02:37:19;;;;;;;2.03;0.80;;;23.90;82.60;;;;;;5019746;28;20034;-77
2023/07/06 02:39:45;;;;;;;1.20;0.70;;;23.90;82.90;;;;;;5014181;28;20049;-77
2023/07/06 02:42:14;;;;;;;0.63;0.52;;;23.90;82.80;;;;;;5013682;28;20060;-79
2023/07/06 02:44:40;;;;;;;1.90;0.70;;;23.90;82.90;;;;;;5013066;28;20073;-78
2023/07/06 02:47:08;;;;;;;1.40;0.93;;;24.00;82.90;;;;;;5013083;28;20522;-78
2023/07/06 02:49:34;;;;;;;1.13;0.77;;;24.00;82.90;;;;;;5014138;28;20096;-78
2023/07/06 02:52:02;;;;;;;0.98;0.70;;;24.10;82.90;;;;;;5020066;28;20462;-78
2023/07/06 02:54:28;;;;;;;0.95;0.70;;;24.10;82.70;;;;;;5024178;28;20034;-78
2023/07/06 02:56:56;;;;;;;1.45;0.70;;;24.10;82.80;;;;;;5014057;28;20026;-78
2023/07/06 02:59:22;;;;;;;0.98;0.57;;;24.10;82.80;;;;;;5016706;28;20026;-79
2023/07/06 03:01:48;;;;;;;3.60;0.70;;;24.10;82.70;;;;;;5020990;28;20080;-79
2023/07/06 03:04:17;;;;;;;1.08;0.60;;;24.10;82.80;;;;;;5015776;28;20470;-78
2023/07/06 03:06:45;;;;;;;1.20;0.90;;;24.10;82.80;;;;;;5013385;28;20073;-79
2023/07/06 03:09:11;;;;;;;1.13;0.85;;;24.10;82.90;;;;;;5013578;28;20280;-79
2023/07/06 03:11:37;;;;;;;1.25;0.60;;;24.10;82.80;;;;;;5004266;28;20045;-79
2023/07/06 03:14:04;;;;;;;2.15;0.90;;;24.10;82.90;;;;;;5021768;28;20022;-79
2023/07/06 03:16:40;;;;;;;1.02;0.50;;;24.10;83.10;;;;;;5015125;28;20089;-79
2023/07/06 03:19:15;;;;;;;1.70;0.70;;;24.00;83.30;;;;;;4999587;28;20033;-79
2023/07/06 03:21:41;;;;;;;0.95;0.70;;;23.90;83.30;;;;;;4994845;28;20046;-78
2023/07/06 03:24:07;;;;;;;1.17;0.70;;;23.80;83.50;;;;;;5022057;28;20108;-78
2023/07/06 03:26:36;;;;;;;3.15;1.25;;;23.80;84.30;;;;;;5026193;28;20481;-78
2023/07/06 03:29:04;;;;;;;0.55;0.50;;;23.70;84.60;;;;;;5012689;28;20022;-78
2023/07/06 03:31:32;;;;;;;4.00;0.68;;;23.60;84.60;;;;;;5013297;28;20034;-77
2023/07/06 03:33:58;;;;;;;2.97;0.73;;;23.60;84.80;;;;;;5023463;28;20026;-78
2023/07/06 03:36:23;;;;;;;0.93;0.50;;;23.50;85.00;;;;;;5027466;28;20029;-79
2023/07/06 03:38:50;;;;;;;3.40;0.80;;;23.50;85.40;;;;;;5020108;28;20485;-79
2023/07/06 03:41:16;;;;;;;1.10;0.70;;;23.40;85.60;;;;;;4995257;28;20116;-79
2023/07/06 03:43:43;;;;;;;1.02;0.70;;;23.40;85.50;;;;;;5021103;28;20120;-79
2023/07/06 03:46:09;;;;;;;1.50;0.60;;;23.40;85.10;;;;;;5000067;28;20040;-79
2023/07/06 03:48:40;;;;;;;1.73;0.80;;;23.50;85.30;;;;;;5019783;28;20021;-79
2023/07/06 03:51:07;;;;;;;1.58;0.60;;;23.50;85.30;;;;;;5012510;28;20026;-79
2023/07/06 03:53:35;;;;;;;1.40;0.88;;;23.60;85.20;;;;;;5018776;28;20018;-79
2023/07/06 03:56:06;;;;;;;1.85;0.60;;;23.60;85.10;;;;;;5018772;28;20038;-79
2023/07/06 03:58:32;;;;;;;1.38;0.52;;;23.70;85.00;;;;;;5012176;28;20493;-79
2023/07/06 04:00:58;;;;;;;2.08;0.80;;;23.70;84.90;;;;;;5012882;28;20093;-79
2023/07/06 04:03:26;;;;;;;1.63;0.70;;;23.60;84.70;;;;;;5011938;28;20124;-79
2023/07/06 04:05:53;;;;;;;3.55;0.90;;;23.50;85.10;;;;;;5019879;28;20038;-79
2023/07/06 04:08:21;;;;;;;1.95;0.68;;;23.50;85.30;;;;;;5019459;28;20026;-78
2023/07/06 04:10:48;;;;;;;1.23;0.60;;;23.40;85.20;;;;;;5012685;28;20140;-79
2023/07/06 04:13:14;;;;;;;3.85;1.02;;;23.40;85.30;;;;;;5011566;28;20026;-79
2023/07/06 04:15:45;;;;;;;1.17;0.60;;;23.40;85.60;;;;;;5021806;28;20378;-78
2023/07/06 04:18:11;;;;;;;0.90;0.68;;;23.40;85.40;;;;;;5015743;28;20533;-78
2023/07/06 04:20:37;;;;;;;1.67;0.70;;;23.40;85.40;;;;;;4994987;28;20373;-79
2023/07/06 04:23:04;;;;;;;3.72;0.80;;;23.40;85.30;;;;;;5011774;28;20033;-79
2023/07/06 04:25:31;;;;;;;1.27;0.50;;;23.40;85.30;;;;;;5021094;28;20470;-79
2023/07/06 04:28:01;;;;;;;1.73;0.80;;;23.50;85.30;;;;;;5015728;28;20422;-79
2023/07/06 04:30:27;;;;;;;1.58;0.90;;;23.60;85.20;;;;;;5012465;28;20493;-80
2023/07/06 04:32:53;;;;;;;5.97;0.70;;;23.60;84.80;;;;;;5024324;28;20090;-78
2023/07/06 04:35:23;;;;;;;0.82;0.40;;;23.60;84.60;;;;;;5025298;28;20034;-79
2023/07/06 04:37:50;;;;;;;1.52;0.60;;;23.60;84.50;;;;;;5017413;28;20057;-78
2023/07/06 04:40:21;;;;;;;2.30;0.60;;;23.70;84.40;;;;;;5016610;28;20121;-78
2023/07/06 04:42:48;;;;;;;;;;;23.70;84.30;;;;;;4999102;28;20029;-79
2023/07/06 04:45:17;;;;;;;1.10;0.60;;;23.70;84.20;;;;;;5024873;28;19917;-79
2023/07/06 04:47:44;;;;;;;1.70;0.65;;;23.80;84.30;;;;;;5019975;28;20080;-78
2023/07/06 04:50:15;;;;;;;1.40;0.93;;;23.80;84.30;;;;;;5021219;28;20026;-78
2023/07/06 04:52:40;;;;;;;1.98;0.93;;;23.80;84.20;;;;;;5016027;28;20053;-78
2023/07/06 04:55:08;;;;;;;1.77;0.50;;;23.80;83.90;;;;;;5001977;28;20064;-78
2023/07/06 04:57:35;;;;;;;0.85;0.63;;;23.90;83.60;;;;;;5024139;28;20099;-78
2023/07/06 05:00:01;;;;;;;1.65;0.90;;;23.90;83.20;;;;;;5015475;28;20102;-78
2023/07/06 05:02:30;;;;;;;2.30;0.70;;;24.00;83.10;;;;;;5017873;28;20038;-78
2023/07/06 05:05:00;;;;;;;1.15;0.80;;;24.10;82.90;;;;;;5013406;28;20022;-78
2023/07/06 05:07:26;;;;;;;1.73;0.50;;;24.20;82.90;;;;;;5027016;28;20112;-78
2023/07/06 05:09:52;;;;;;;4.07;1.10;;;24.20;82.80;;;;;;5017180;28;20024;-78
2023/07/06 05:12:18;;;;;;;1.45;0.90;;;24.30;82.20;;;;;;5011890;28;20053;-78
2023/07/06 05:14:43;;;;;;;0.95;0.80;;;24.30;82.20;;;;;;5021996;28;20026;-78
2023/07/06 05:17:09;;;;;;;1.58;0.85;;;24.30;82.20;;;;;;5009120;28;20078;-78
2023/07/06 05:19:36;;;;;;;1.73;1.27;;;24.40;82.30;;;;;;5012934;28;20165;-78
2023/07/06 05:22:02;;;;;;;3.28;1.00;;;24.40;82.10;;;;;;5016108;28;20107;-78
2023/07/06 05:24:28;;;;;;;2.40;0.90;;;24.50;81.60;;;;;;5014546;28;20041;-78
2023/07/06 05:26:54;;;;;;;2.30;1.42;;;24.50;81.80;;;;;;4999645;28;20382;-78
2023/07/06 05:29:20;;;;;;;1.13;0.80;;;24.40;81.70;;;;;;5014835;28;20030;-78
2023/07/06 05:31:46;;;;;;;2.00;1.02;;;24.40;82.20;;;;;;5011609;28;20059;-79
2023/07/06 05:34:12;;;;;;;0.98;0.85;;;24.40;82.10;;;;;;5015592;28;20026;-79
2023/07/06 05:36:38;;;;;;;1.40;0.63;;;24.40;82.10;;;;;;5014462;28;20384;-79
2023/07/06 05:39:07;;;;;;;1.55;0.77;;;24.40;82.10;;;;;;5018298;28;20474;-77
2023/07/06 05:41:33;;;;;;;1.33;0.67;;;24.40;81.80;;;;;;5016054;28;20029;-78
2023/07/06 05:43:58;;;;;;;1.13;0.90;;;24.50;81.80;;;;;;5014376;28;20040;-77
2023/07/06 05:46:25;;;;;;;1.83;0.88;;;24.50;81.60;;;;;;5014072;28;20486;-78
2023/07/06 05:48:51;;;;;;;0.68;0.60;;;24.40;81.70;;;;;;5016730;28;20104;-77
2023/07/06 05:51:17;;;;;;;2.17;0.60;;;24.50;82.20;;;;;;5023069;28;20053;-77
2023/07/06 05:53:43;;;;;;;0.98;0.70;;;24.50;82.10;;;;;;5018660;28;20057;-77
2023/07/06 05:56:09;;;;;;;1.83;0.95;;;24.50;81.70;;;;;;5013934;28;20025;-77
2023/07/06 05:58:35;;;;;;;0.85;0.70;;;24.50;81.60;;;;;;5016911;28;20037;-77
2023/07/06 06:01:02;;;;;;;3.78;1.38;;;24.50;81.40;;;;;;5012898;28;20040;-77
2023/07/06 06:03:29;;;;;;;2.75;1.00;;;24.60;81.70;;;;;;5006882;28;20033;-77
2023/07/06 06:05:55;;;;;;;1.00;0.55;;;24.60;81.20;;;;;;5013014;28;20076;-78
2023/07/06 06:08:21;;;;;;;2.72;1.02;;;24.60;81.60;;;;;;5011240;28;20063;-77
2023/07/06 06:10:51;;;;;;;1.90;0.80;;;24.60;81.00;;;;;;4996020;28;20038;-80
2023/07/06 06:13:18;;;;;;;1.77;0.80;;;24.60;81.20;;;;;;5025172;28;20030;-78
2023/07/06 06:15:44;;;;;;;1.35;0.80;;;24.60;80.70;;;;;;5014354;28;20022;-80
2023/07/06 06:18:13;;;;;;;2.33;0.80;;;24.70;81.00;;;;;;5019342;28;20032;-80
2023/07/06 06:20:38;;;;;;;4.82;1.23;;;24.70;80.90;;;;;;4997824;28;20450;-78
2023/07/06 06:23:06;;;;;;;3.42;0.95;;;24.70;80.80;;;;;;5019883;28;20072;-82
2023/07/06 06:25:31;;;;;;;4.22;1.40;;;24.70;80.80;;;;;;5014071;28;20021;-90
2023/07/06 06:27:57;;;;;;;3.13;0.93;;;24.70;80.40;;;;;;4997613;28;20132;-78
2023/07/06 06:30:23;;;;;;;2.03;0.80;;;24.70;80.40;;;;;;5018131;28;20022;-78
2023/07/06 06:32:49;;;;;;;2.90;1.35;;;24.70;80.60;;;;;;5014151;28;20128;-84
2023/07/06 06:35:27;;;;;;;1.92;0.98;;;24.70;80.50;;;;;;4994417;28;20105;-79
2023/07/06 06:37:54;;;;;;;3.90;1.17;;;24.70;80.00;;;;;;5010582;28;20458;-79
2023/07/06 06:40:21;;;;;;;3.03;1.05;;;24.70;80.50;;;;;;5017138;28;20187;-80
2023/07/06 06:42:50;;;;;;;2.47;1.02;;;24.70;80.10;;;;;;5013002;28;20055;-79
2023/07/06 06:45:18;;;;;;;2.30;1.02;;;24.70;80.10;;;;;;5010112;28;20041;-79
2023/07/06 06:47:44;;;;;;;4.80;1.60;;;24.80;80.50;;;;;;5012082;28;20037;-81
2023/07/06 06:50:16;;;;;;;2.53;1.23;;;24.80;80.50;;;;;;5017196;28;20474;-80
2023/07/06 06:52:46;;;;;;;2.53;0.95;;;24.80;80.70;;;;;;5012859;28;20037;-78
2023/07/06 06:55:12;;;;;;;2.38;1.00;;;24.90;81.20;;;;;;4994722;28;20504;-78
2023/07/06 06:57:38;;;;;;;3.55;1.42;;;24.90;81.30;;;;;;5012055;28;20037;-79
2023/07/06 07:00:06;;;;;;;5.00;1.33;;;25.00;81.20;;;;;;5030002;28;20029;-79
2023/07/06 07:02:33;;;;;;;4.85;1.20;;;25.00;80.60;;;;;;5012634;28;20040;-79
2023/07/06 07:05:00;;;;;;;4.22;1.50;;;25.00;80.90;;;;;;5012867;28;20068;-79
2023/07/06 07:07:27;;;;;;;2.67;1.40;;;25.00;81.00;;;;;;5013588;28;20030;-79
2023/07/06 07:09:53;;;;;;;2.70;1.33;;;25.00;80.60;;;;;;5018169;28;20101;-80
2023/07/06 07:12:19;;;;;;;3.88;1.20;;;25.00;80.20;;;;;;5012731;28;20045;-80
2023/07/06 07:14:45;;;;;;;3.33;1.27;;;25.10;79.80;;;;;;4995055;28;20029;-79
2023/07/06 07:17:13;;;;;;;1.95;1.10;;;25.00;79.40;;;;;;5013393;28;20410;-80
2023/07/06 07:19:39;;;;;;;1.83;1.10;;;25.00;79.40;;;;;;5011225;28;20545;-80
2023/07/06 07:22:06;;;;;;;1.63;0.90;;;25.00;79.60;;;;;;5012189;28;20044;-80
2023/07/06 07:24:32;;;;;;;3.88;1.30;;;25.00;79.70;;;;;;5011924;28;20038;-80
2023/07/06 07:26:59;;;;;;;1.73;1.10;;;25.10;80.10;;;;;;5011694;28;20032;-79
2023/07/06 07:29:25;;;;;;;1.67;0.80;;;25.10;80.10;;;;;;4996785;28;20091;-79
2023/07/06 07:31:51;;;;;;;2.67;1.13;;;25.10;80.20;;;;;;4993888;28;20038;-80
2023/07/06 07:34:17;;;;;;;1.23;0.80;;;25.10;79.80;;;;;;4993492;28;20026;-81
2023/07/06 07:36:44;;;;;;;1.80;0.95;;;25.20;80.00;;;;;;4993641;28;20062;-81
2023/07/06 07:39:10;;;;;;;7.88;1.70;;;25.20;79.60;;;;;;5000999;28;20025;-78
2023/07/06 07:41:36;;;;;;;2.90;1.30;;;25.30;79.60;;;;;;5033324;28;20033;-79
2023/07/06 07:44:02;;;;;;;2.17;1.20;;;25.30;79.00;;;;;;5013812;28;20084;-80
2023/07/06 07:46:31;;;;;;;2.67;1.05;;;25.30;79.40;;;;;;4995675;28;20057;-80
2023/07/06 07:48:57;;;;;;;2.55;1.20;;;25.40;79.80;;;;;;5014004;28;20062;-79
2023/07/06 07:51:26;;;;;;;2.22;1.23;;;25.40;80.50;;;;;;5017458;28;20026;-79
2023/07/06 07:53:54;;;;;;;3.00;1.10;;;25.40;79.60;;;;;;5013171;28;20041;-79
2023/07/06 07:56:21;;;;;;;1.50;1.13;;;25.40;79.10;;;;;;5012833;28;20061;-79
2023/07/06 07:58:48;;;;;;;3.72;1.67;;;25.40;79.20;;;;;;5012854;28;20102;-79
2023/07/06 08:01:16;;;;;;;1.00;0.80;;;25.40;79.50;;;;;;4993315;28;20031;-80
2023/07/06 08:03:42;;;;;;;3.35;1.20;;;25.40;80.10;;;;;;5012784;28;20092;-80
2023/07/06 08:06:09;;;;;;;3.92;1.10;;;25.30;79.70;;;;;;5012598;28;20026;-80
2023/07/06 08:08:36;;;;;;;2.10;1.00;;;25.30;80.00;;;;;;5016260;28;20100;-81
2023/07/06 08:11:10;;;;;;;2.80;1.10;;;25.20;80.00;;;;;;5004966;28;20091;-80
2023/07/06 08:13:36;;;;;;;4.65;1.30;;;25.10;79.80;;;;;;5010883;28;20034;-81
2023/07/06 08:16:04;;;;;;;2.70;1.10;;;25.10;79.70;;;;;;4999001;28;20036;-81
2023/07/06 08:18:31;;;;;;;2.85;1.10;;;25.00;79.90;;;;;;5014727;28;20018;-79
2023/07/06 08:20:57;;;;;;;2.47;1.10;;;25.00;80.00;;;;;;5015627;28;20034;-79
2023/07/06 08:23:26;;;;;;;2.65;1.30;;;24.90;80.10;;;;;;5015937;28;20474;-79
2023/07/06 08:25:52;;;;;;;2.53;1.10;;;24.90;80.40;;;;;;4998768;28;20531;-79
2023/07/06 08:28:31;;;;;;;2.80;1.10;;;24.80;80.50;;;;;;5015384;28;20114;-79
2023/07/06 08:30:58;;;;;;;2.50;1.13;;;24.80;80.70;;;;;;5014721;28;20022;-79
2023/07/06 08:33:25;;;;;;;3.40;1.10;;;24.80;81.00;;;;;;5015636;28;20026;-79
2023/07/06 08:35:52;;;;;;;3.63;1.00;;;24.80;80.90;;;;;;5014750;28;20030;-79
2023/07/06 08:38:17;;;;;;;4.32;1.15;;;24.70;81.10;;;;;;5012690;28;20056;-79
2023/07/06 08:40:48;;;;;;;2.17;1.13;;;24.70;81.30;;;;;;5014265;28;20065;-78
2023/07/06 08:43:25;;;;;;;2.22;1.42;;;24.70;81.60;;;;;;5014208;28;20033;-79
2023/07/06 08:45:58;;;;;;;2.67;1.58;;;24.70;82.20;;;;;;5014664;28;20038;-79
2023/07/06 08:48:27;;;;;;;3.58;1.20;;;24.70;82.80;;;;;;4997436;28;20026;-79
2023/07/06 08:51:01;;;;;;;2.85;0.90;;;24.70;82.90;;;;;;4997364;28;20072;-79
2023/07/06 08:53:32;;;;;;;1.92;1.10;;;24.60;83.80;;;;;;5014612;28;20045;-80
2023/07/06 08:56:01;;;;;;;3.53;1.02;;;24.50;84.40;;;;;;5014839;28;20056;-80
2023/07/06 08:58:41;;;;;;;1.80;1.10;;;24.50;84.70;;;;;;5014724;28;20034;-80
2023/07/06 09:01:14;;;;;;;2.80;1.08;;;24.40;86.10;;;;;;5015137;28;20037;-80
2023/07/06 09:03:46;;;;;;;4.72;1.63;;;24.40;87.00;;;;;;5015948;28;20033;-79
2023/07/06 09:06:16;;;;;;;1.83;0.80;;;24.30;88.10;;;;;;5015927;28;20030;-79
2023/07/06 09:08:41;;;;;;;;;;;24.20;87.80;;;;;;5015899;28;20033;-79
2023/07/06 09:11:08;;;;;;;2.67;1.00;;;24.00;88.50;;;;;;5011738;28;19914;-79
2023/07/06 09:13:47;;;;;;;2.25;0.90;;;23.90;88.70;;;;;;4996087;28;20097;-79
2023/07/06 09:16:19;;;;;;;2.53;1.15;;;23.80;88.80;;;;;;4996260;28;20398;-79
2023/07/06 09:18:49;;;;;;;3.53;1.48;;;23.80;89.80;;;;;;4995273;28;20054;-79
2023/07/06 09:21:17;;;;;;;3.08;1.17;;;23.70;90.20;;;;;;4995836;28;20031;-79
2023/07/06 09:23:47;;;;;;;4.25;1.20;;;23.70;90.20;;;;;;4995818;28;20018;-79
2023/07/06 09:26:21;;;;;;;2.25;1.13;;;23.70;90.60;;;;;;4996123;28;20491;-80
2023/07/06 09:28:47;;;;;;;2.40;1.00;;;23.70;90.90;;;;;;4996012;28;20022;-81
2023/07/06 09:31:19;;;;;;;4.13;1.35;;;23.70;90.80;;;;;;4978541;28;20024;-79
2023/07/06 09:33:48;;;;;;;2.80;1.27;;;23.70;90.50;;;;;;4996239;28;20110;-80
2023/07/06 09:36:23;;;;;;;2.88;1.40;;;23.70;90.70;;;;;;4996029;28;20030;-80
2023/07/06 09:38:48;;;;;;;3.00;1.40;;;23.60;90.90;;;;;;4995538;28;20031;-80
2023/07/06 09:41:24;;;;;;;2.72;1.33;;;23.60;90.70;;;;;;4995293;28;20041;-80
2023/07/06 09:43:57;;;;;;;2.33;1.10;;;23.70;90.40;;;;;;4995213;28;20126;-80
2023/07/06 09:46:31;;;;;;;1.73;1.25;;;23.70;90.60;;;;;;4977925;28;20058;-80
2023/07/06 09:48:57;;;;;;;2.63;1.38;;;23.70;90.60;;;;;;4995480;28;20050;-80
2023/07/06 09:51:38;;;;;;;2.70;1.30;;;23.70;90.70;;;;;;4995513;28;20058;-80
2023/07/06 09:54:11;;;;;;;2.08;0.98;;;23.70;90.60;;;;;;4992578;28;20419;-80
2023/07/06 09:56:38;;;;;;;2.10;1.27;;;23.70;90.50;;;;;;4993743;28;20030;-80
2023/07/06 09:59:04;;;;;;;4.30;1.77;;;23.70;90.50;;;;;;4994209;28;20103;-80
2023/07/06 10:01:42;;;;;;;2.53;1.33;;;23.80;90.70;;;;;;4994341;28;20084;-80
2023/07/06 10:04:19;;;;;;;5.25;1.45;;;23.80;90.40;;;;;;4994376;28;20124;-80
2023/07/06 10:06:56;;;;;;;1.85;1.17;;;23.80;90.60;;;;;;4994236;28;20062;-80
2023/07/06 10:09:34;;;;;;;2.28;1.58;;;23.80;90.10;;;;;;4994150;28;20371;-79
2023/07/06 10:12:19;;;;;;;2.75;1.40;;;23.80;90.20;;;;;;5002429;28;20037;-80
2023/07/06 10:14:54;;;;;;;3.25;1.48;;;23.90;90.60;;;;;;4996165;28;20463;-81
2023/07/06 10:17:37;;;;;;;1.58;1.00;;;24.10;90.80;;;;;;4999392;28;20046;-79
2023/07/06 10:20:29;;;;;;;2.00;1.35;;;24.30;90.80;;;;;;5011367;28;20029;-79
2023/07/06 10:23:03;;;;;;;2.40;1.33;;;24.40;89.80;;;;;;5012313;28;20053;-79
2023/07/06 10:25:44;;;;;;;3.95;1.50;;;24.50;90.10;;;;;;5013282;28;20466;-78
2023/07/06 10:28:38;;;;;;;1.50;1.10;;;24.50;90.20;;;;;;5014493;28;20017;-79
2023/07/06 10:31:08;;;;;;;1.60;1.17;;;24.60;89.70;;;;;;5013067;28;20041;-78
2023/07/06 10:33:41;;;;;;;1.63;1.03;;;24.70;89.10;;;;;;5014254;28;20121;-76
2023/07/06 10:36:12;;;;;;;1.58;1.10;;;24.80;88.70;;;;;;5012601;28;20466;-79
2023/07/06 10:38:37;;;;;;;2.92;1.10;;;24.90;88.60;;;;;;5015883;28;20034;-79
2023/07/06 10:41:09;;;;;;;1.77;1.00;;;25.00;88.90;;;;;;5022828;28;20022;-79
2023/07/06 10:43:38;;;;;;;4.55;1.98;;;25.00;87.70;;;;;;5018694;28;20022;-78
2023/07/06 10:46:27;;;;;;;1.65;1.20;;;25.00;87.30;;;;;;5018582;28;20049;-78
2023/07/06 10:49:00;;;;;;;2.55;1.33;;;24.90;87.40;;;;;;5030736;28;20128;-78
2023/07/06 10:51:27;;;;;;;2.28;1.38;;;24.90;88.50;;;;;;5032828;28;20108;-78
2023/07/06 10:54:19;;;;;;;2.60;1.30;;;25.00;88.60;;;;;;5024110;28;20042;-78
2023/07/06 10:57:00;;;;;;;1.17;1.00;;;25.10;88.60;;;;;;5017165;28;20086;-78
2023/07/06 10:59:37;;;;;;;3.55;1.23;;;25.10;87.70;;;;;;5030670;28;20044;-79
2023/07/06 11:02:15;;;;;;;1.25;0.93;;;25.30;88.40;;;;;;5011610;28;20041;-79
2023/07/06 11:04:47;;;;;;;3.63;1.52;;;25.30;88.00;;;;;;5001206;28;20441;-78
2023/07/06 11:07:44;;;;;;;1.38;0.98;;;25.30;86.90;;;;;;5025647;28;20148;-76
2023/07/06 11:10:22;;;;;;;3.20;1.10;;;25.40;87.30;;;;;;5012170;28;20848;-78
2023/07/06 11:12:57;;;;;;;2.03;1.23;;;25.40;87.30;;;;;;4996253;28;20113;-79
2023/07/06 11:15:51;;;;;;;1.30;0.93;;;25.40;86.90;;;;;;4990699;28;20038;-79
2023/07/06 11:18:44;;;;;;;1.60;1.13;;;25.50;86.80;;;;;;4999372;28;20104;-79
2023/07/06 11:21:26;;;;;;;6.03;1.60;;;25.50;86.10;;;;;;4995055;28;20092;-78
2023/07/06 11:23:56;;;;;;;3.05;1.30;;;25.50;84.00;;;;;;5001031;28;20026;-79
2023/07/06 11:26:43;;;;;;;2.63;0.93;;;25.40;84.60;;;;;;4997935;28;20093;-80
2023/07/06 11:29:10;;;;;;;10.32;1.40;;;25.30;84.80;;;;;;4986329;28;20026;-78
2023/07/06 11:31:59;;;;;;;1.20;0.80;;;25.20;85.60;;;;;;5004571;28;20042;-79
2023/07/06 11:34:45;;;;;;;2.85;1.30;;;25.20;85.80;;;;;;4986520;28;20396;-78
2023/07/06 11:37:14;;;;;;;0.93;0.80;;;25.10;84.90;;;;;;5010209;28;20040;-78
2023/07/06 11:40:21;;;;;;;2.97;1.20;;;25.10;85.60;;;;;;5013273;28;20474;-79
2023/07/06 11:43:03;;;;;;;1.42;0.88;;;25.10;86.10;;;;;;4972666;28;20061;-78
2023/07/06 11:45:50;;;;;;;2.33;1.08;;;25.10;86.20;;;;;;4993034;28;20108;-78
2023/07/06 11:48:40;;;;;;;1.52;1.10;;;25.20;86.80;;;;;;4992753;28;20034;-78
2023/07/06 11:51:08;;;;;;;2.53;1.13;;;25.20;87.70;;;;;;4997119;28;20027;-78
2023/07/06 11:53:44;;;;;;;2.13;1.13;;;25.20;87.90;;;;;;4977468;28;20038;-79
2023/07/06 11:56:50;;;;;;;2.85;1.33;;;25.30;88.20;;;;;;4992734;28;20026;-79
2023/07/06 11:59:37;;;;;;;2.28;1.30;;;25.40;88.70;;;;;;4975536;28;20034;-76
2023/07/06 12:02:17;;;;;;;2.80;1.10;;;25.40;88.90;;;;;;4988919;28;20424;-80
2023/07/06 12:04:46;;;;;;;1.23;0.98;;;25.50;88.50;;;;;;4988690;28;20034;-78
2023/07/06 12:07:30;;;;;;;1.88;1.10;;;25.50;87.20;;;;;;4996150;28;20030;-78
2023/07/06 12:10:02;;;;;;;2.88;1.55;;;25.70;87.50;;;;;;4992670;28;20539;-78
2023/07/06 12:12:30;;;;;;;2.20;1.27;;;25.70;87.40;;;;;;5006366;28;20564;-79
2023/07/06 12:14:58;;;;;;;2.55;1.20;;;25.80;87.10;;;;;;5013582;28;20022;-78
2023/07/06 12:17:24;;;;;;;2.90;1.40;;;25.90;87.00;;;;;;5013572;28;20034;-78
2023/07/06 12:19:56;;;;;;;1.88;1.17;;;25.90;85.00;;;;;;5008708;28;20034;-80
2023/07/06 12:22:23;;;;;;;1.90;1.00;;;26.00;85.80;;;;;;5009307;28;20034;-79
2023/07/06 12:24:52;;;;;;;1.23;1.02;;;26.00;85.30;;;;;;4996003;28;20068;-78
2023/07/06 12:27:18;;;;;;;1.60;1.10;;;25.90;84.40;;;;;;5012543;28;20026;-78
2023/07/06 12:29:45;;;;;;;1.60;1.17;;;25.80;84.00;;;;;;5013407;28;20744;-79
2023/07/06 12:32:21;;;;;;;1.95;1.08;;;25.70;83.90;;;;;;5010993;28;20113;-77
2023/07/06 12:34:52;;;;;;;2.22;1.10;;;25.70;84.50;;;;;;5011786;28;20097;-79
2023/07/06 12:37:21;;;;;;;1.95;1.15;;;25.70;85.10;;;;;;5011963;28;20486;-78
2023/07/06 12:39:48;;;;;;;2.05;1.30;;;25.60;84.90;;;;;;5007043;28;20106;-79
2023/07/06 12:42:17;;;;;;;2.03;1.27;;;25.60;84.30;;;;;;5023353;28;20026;-79
2023/07/06 12:44:44;;;;;;;1.83;1.20;;;25.60;84.50;;;;;;5010674;28;20026;-79
2023/07/06 12:47:24;;;;;;;1.73;1.10;;;25.60;84.40;;;;;;5018415;28;20414;-79
2023/07/06 12:49:57;;;;;;;1.45;1.17;;;25.60;83.60;;;;;;5011479;28;20049;-80
2023/07/06 12:52:23;;;;;;;1.45;1.00;;;25.60;84.40;;;;;;5013072;28;20030;-80
2023/07/06 12:54:52;;;;;;;2.55;1.15;;;25.60;83.90;;;;;;5007543;28;20075;-80
2023/07/06 12:57:24;;;;;;;2.42;1.38;;;25.60;83.40;;;;;;5014567;28;20057;-80
2023/07/06 12:59:54;;;;;;;1.95;1.08;;;25.60;84.30;;;;;;5015017;28;20026;-81
2023/07/06 13:02:22;;;;;;;3.17;1.30;;;25.70;83.80;;;;;;5019343;28;20025;-80
2023/07/06 13:04:49;;;;;;;2.30;1.20;;;25.70;83.60;;;;;;5015901;28;20026;-81
2023/07/06 13:07:19;;;;;;;2.97;1.23;;;25.70;84.50;;;;;;5017966;28;20041;-81